CheckWX is a tool to help pilots better visualize weather data.  It is not intended as a substitute for an official pre-flight weather briefing.

13:36:41 UTC

KVJI METAR
Virginia Highlands Airport
Abingdon, Virginia, USA
Current

22 mins ago

KVJI 191315Z AUTO 06007KT 10SM OVC060 04/M01 A3033 RMK AO2 T00381009
Observed
Feb-19 @ 13:15 UTC
Wind
  • 060° at 7 KTS
Visibility
10 SM
Flight Rules
VFR
Cloud Levels
  • Overcast at 6,000' AGL
Temperature
C / 39°F
Dewpoint
-1°C / 30°F
Humidity
70%
Altimeter
30.33" Hg
Pressure
1027.12 hPa
Previous

42 mins ago

KVJI 191255Z AUTO 07004KT 10SM OVC060 04/M01 A3031 RMK AO2 T00381007
Observed
Feb-19 @ 12:55 UTC
Wind
  • 070° at 4 KTS
Visibility
10 SM
Flight Rules
VFR
Cloud Levels
  • Overcast at 6,000' AGL
Temperature
C / 39°F
Dewpoint
-1°C / 30°F
Humidity
70%
Altimeter
30.31" Hg
Pressure
1026.42 hPa
Previous

1 hour ago

KVJI 191235Z AUTO 05005KT 10SM OVC060 04/M01 A3030 RMK AO2 T00381006
Observed
Feb-19 @ 12:35 UTC
Wind
  • 050° at 5 KTS
Visibility
10 SM
Flight Rules
VFR
Cloud Levels
  • Overcast at 6,000' AGL
Temperature
C / 39°F
Dewpoint
-1°C / 30°F
Humidity
70%
Altimeter
30.3" Hg
Pressure
1026.12 hPa